Toledo, Washington
Current Conditions -  °F | °C
As of 2:55 AM on Friday 19 Dec 2014 (Local Time) from KCLS Reporting Station
Overcast Overcast  
Wind Chill: 44°   Ceiling: 4200
Heat Index: 48°   Visibility: 10mi
Dew Point: 46°   Wind: 9mph
Humidity: 93%   Direction: 170°S
Pressure: 29.84"   Gusts: NA
Location:  46.44°N, 122.85°W
Report Text: KCLS 191055Z AUTO 17008KT 10SM BKN042 OVC049 09/08 A2984 RMK AO2
Loading
Personal Weather Stations






























Interactive Weather Map New forecast layout! Learn more

10-Day Weather Forecast

Advertisements
Track Severe Weather on mobile